LFBL/LIG METAR and TAF weather

Enter ICAO airport designator
Station Type Date Time Source
LFBL METAR 2020/11/27 15:00 UTC NOAA

LFBL 271500Z AUTO 15005KT 9999 FEW030 16/09 Q1013 NOSIG


Station Type Date Time Source
LFBL Decoded METAR 2020/11/27 15:00 UTC NOAA

Limoges, France (LFBL) 45-52N 001-11E 402M
Nov 27, 2020 - 10:00 AM EST / 2020.11.27 1500 UTC
Wind: from the SSE (150 degrees) at 6 MPH (5 KT):0
Visibility: greater than 7 mile(s):0
Sky conditions: mostly clear
Temperature: 60 F (16 C)
Dew Point: 48 F (9 C)
Relative Humidity: 63%
Pressure (altimeter): 29.91 in. Hg (1013 hPa)
ob: LFBL 271500Z AUTO 15005KT 9999 FEW030 16/09 Q1013 NOSIG
cycle: 15

Station Type Date Time Source
LFBL TAF 2020/11/27 12:42 UTC NOAA

TAF TAF LFBL 271100Z 2712/2812 12010KT CAVOK

Example: see airport list